sensor_id;sensor_type;location;lat;lon;timestamp;P1;durP1;ratioP1;P2;durP2;ratioP2
3133;SDS011;1577;49.912;10.924;2022-08-21T00:00:14;7.97;;;5.17;;
3133;SDS011;1577;49.912;10.924;2022-08-21T00:02:48;9.57;;;5.47;;
3133;SDS011;1577;49.912;10.924;2022-08-21T00:05:20;8.67;;;5.70;;
3133;SDS011;1577;49.912;10.924;2022-08-21T00:07:47;10.67;;;5.67;;
3133;SDS011;1577;49.912;10.924;2022-08-21T00:10:13;9.93;;;5.93;;
3133;SDS011;1577;49.912;10.924;2022-08-21T00:12:39;10.47;;;6.57;;
3133;SDS011;1577;49.912;10.924;2022-08-21T00:15:07;14.03;;;6.00;;
3133;SDS011;1577;49.912;10.924;2022-08-21T00:17:34;9.10;;;5.43;;
3133;SDS011;1577;49.912;10.924;2022-08-21T00:20:00;11.90;;;5.97;;
3133;SDS011;1577;49.912;10.924;2022-08-21T00:22:25;9.70;;;6.40;;
3133;SDS011;1577;49.912;10.924;2022-08-21T00:24:51;9.90;;;6.00;;
3133;SDS011;1577;49.912;10.924;2022-08-21T00:27:17;10.03;;;7.10;;
3133;SDS011;1577;49.912;10.924;2022-08-21T00:29:42;12.37;;;7.27;;
3133;SDS011;1577;49.912;10.924;2022-08-21T00:32:08;12.60;;;7.23;;
3133;SDS011;1577;49.912;10.924;2022-08-21T00:34:34;13.63;;;6.70;;
3133;SDS011;1577;49.912;10.924;2022-08-21T00:36:59;11.07;;;7.37;;
3133;SDS011;1577;49.912;10.924;2022-08-21T00:39:25;12.20;;;6.03;;
3133;SDS011;1577;49.912;10.924;2022-08-21T00:41:50;9.47;;;5.70;;
3133;SDS011;1577;49.912;10.924;2022-08-21T00:44:16;10.07;;;6.00;;
3133;SDS011;1577;49.912;10.924;2022-08-21T00:46:42;9.23;;;5.47;;
3133;SDS011;1577;49.912;10.924;2022-08-21T00:49:09;10.60;;;6.07;;
3133;SDS011;1577;49.912;10.924;2022-08-21T00:51:48;7.17;;;5.47;;
3133;SDS011;1577;49.912;10.924;2022-08-21T00:54:17;13.73;;;6.50;;
3133;SDS011;1577;49.912;10.924;2022-08-21T00:56:50;8.30;;;5.57;;
3133;SDS011;1577;49.912;10.924;2022-08-21T00:59:23;11.43;;;5.73;;
3133;SDS011;1577;49.912;10.924;2022-08-21T01:01:50;8.37;;;5.33;;
3133;SDS011;1577;49.912;10.924;2022-08-21T01:04:17;7.67;;;6.07;;
3133;SDS011;1577;49.912;10.924;2022-08-21T01:06:44;9.13;;;5.53;;
3133;SDS011;1577;49.912;10.924;2022-08-21T01:09:09;9.67;;;6.00;;
3133;SDS011;1577;49.912;10.924;2022-08-21T01:11:35;11.53;;;6.70;;
3133;SDS011;1577;49.912;10.924;2022-08-21T01:14:02;7.53;;;4.80;;
3133;SDS011;1577;49.912;10.924;2022-08-21T01:16:28;8.57;;;5.80;;
3133;SDS011;1577;49.912;10.924;2022-08-21T01:18:54;9.13;;;6.23;;
3133;SDS011;1577;49.912;10.924;2022-08-21T01:21:22;8.80;;;5.13;;
3133;SDS011;1577;49.912;10.924;2022-08-21T01:23:50;9.07;;;5.33;;
3133;SDS011;1577;49.912;10.924;2022-08-21T01:26:18;9.37;;;5.40;;
3133;SDS011;1577;49.912;10.924;2022-08-21T01:31:41;8.73;;;6.97;;
3133;SDS011;1577;49.912;10.924;2022-08-21T01:34:07;10.10;;;5.60;;
3133;SDS011;1577;49.912;10.924;2022-08-21T01:36:34;10.47;;;6.03;;
3133;SDS011;1577;49.912;10.924;2022-08-21T01:39:00;9.67;;;6.23;;
3133;SDS011;1577;49.912;10.924;2022-08-21T01:41:26;9.57;;;5.63;;
3133;SDS011;1577;49.912;10.924;2022-08-21T01:43:51;10.27;;;5.90;;
3133;SDS011;1577;49.912;10.924;2022-08-21T01:46:17;11.27;;;5.80;;
3133;SDS011;1577;49.912;10.924;2022-08-21T01:48:43;11.70;;;5.40;;
3133;SDS011;1577;49.912;10.924;2022-08-21T01:51:08;9.23;;;5.60;;
3133;SDS011;1577;49.912;10.924;2022-08-21T01:53:35;9.07;;;5.53;;
3133;SDS011;1577;49.912;10.924;2022-08-21T01:56:02;10.67;;;5.47;;
3133;SDS011;1577;49.912;10.924;2022-08-21T01:58:30;7.67;;;5.70;;
3133;SDS011;1577;49.912;10.924;2022-08-21T02:00:56;8.20;;;5.80;;
3133;SDS011;1577;49.912;10.924;2022-08-21T02:03:21;9.60;;;5.70;;
3133;SDS011;1577;49.912;10.924;2022-08-21T02:05:47;10.87;;;4.90;;
3133;SDS011;1577;49.912;10.924;2022-08-21T02:08:13;10.53;;;5.77;;
3133;SDS011;1577;49.912;10.924;2022-08-21T02:10:38;10.67;;;6.27;;
3133;SDS011;1577;49.912;10.924;2022-08-21T02:13:06;8.80;;;5.80;;
3133;SDS011;1577;49.912;10.924;2022-08-21T02:15:32;8.17;;;5.60;;
3133;SDS011;1577;49.912;10.924;2022-08-21T02:17:59;15.03;;;6.00;;
3133;SDS011;1577;49.912;10.924;2022-08-21T02:20:36;13.13;;;7.07;;
3133;SDS011;1577;49.912;10.924;2022-08-21T02:23:04;13.40;;;5.90;;
3133;SDS011;1577;49.912;10.924;2022-08-21T02:25:30;9.70;;;5.33;;
3133;SDS011;1577;49.912;10.924;2022-08-21T02:27:57;11.60;;;6.57;;
3133;SDS011;1577;49.912;10.924;2022-08-21T02:30:26;11.33;;;7.00;;
3133;SDS011;1577;49.912;10.924;2022-08-21T02:32:53;9.63;;;5.37;;
3133;SDS011;1577;49.912;10.924;2022-08-21T02:35:20;8.10;;;5.50;;
3133;SDS011;1577;49.912;10.924;2022-08-21T02:37:47;11.40;;;5.27;;
3133;SDS011;1577;49.912;10.924;2022-08-21T02:40:19;7.77;;;5.37;;
3133;SDS011;1577;49.912;10.924;2022-08-21T02:42:47;7.10;;;4.33;;
3133;SDS011;1577;49.912;10.924;2022-08-21T02:45:13;11.53;;;5.70;;
3133;SDS011;1577;49.912;10.924;2022-08-21T02:47:40;9.23;;;5.27;;
3133;SDS011;1577;49.912;10.924;2022-08-21T02:50:12;12.07;;;5.10;;
3133;SDS011;1577;49.912;10.924;2022-08-21T02:52:37;23.93;;;4.97;;
3133;SDS011;1577;49.912;10.924;2022-08-21T02:55:03;11.17;;;5.10;;
3133;SDS011;1577;49.912;10.924;2022-08-21T02:57:29;14.40;;;5.10;;
3133;SDS011;1577;49.912;10.924;2022-08-21T02:59:57;10.80;;;5.27;;
3133;SDS011;1577;49.912;10.924;2022-08-21T03:02:23;25.87;;;6.43;;
3133;SDS011;1577;49.912;10.924;2022-08-21T03:04:49;10.53;;;5.23;;
3133;SDS011;1577;49.912;10.924;2022-08-21T03:07:15;20.50;;;5.07;;
3133;SDS011;1577;49.912;10.924;2022-08-21T03:09:40;16.37;;;5.20;;
3133;SDS011;1577;49.912;10.924;2022-08-21T03:12:06;21.63;;;5.20;;
3133;SDS011;1577;49.912;10.924;2022-08-21T03:14:32;13.23;;;5.53;;
3133;SDS011;1577;49.912;10.924;2022-08-21T03:16:57;21.87;;;6.10;;
3133;SDS011;1577;49.912;10.924;2022-08-21T03:19:23;17.53;;;5.53;;
3133;SDS011;1577;49.912;10.924;2022-08-21T03:21:48;11.97;;;5.37;;
3133;SDS011;1577;49.912;10.924;2022-08-21T03:24:14;16.43;;;5.40;;
3133;SDS011;1577;49.912;10.924;2022-08-21T03:26:40;16.43;;;5.70;;
3133;SDS011;1577;49.912;10.924;2022-08-21T03:29:05;24.50;;;6.03;;
3133;SDS011;1577;49.912;10.924;2022-08-21T03:31:32;18.90;;;5.23;;
3133;SDS011;1577;49.912;10.924;2022-08-21T03:33:58;14.93;;;5.83;;
3133;SDS011;1577;49.912;10.924;2022-08-21T03:36:23;13.20;;;5.60;;
3133;SDS011;1577;49.912;10.924;2022-08-21T03:38:49;18.53;;;5.30;;
3133;SDS011;1577;49.912;10.924;2022-08-21T03:41:15;13.43;;;6.00;;
3133;SDS011;1577;49.912;10.924;2022-08-21T03:43:41;16.20;;;5.40;;
3133;SDS011;1577;49.912;10.924;2022-08-21T03:46:06;12.23;;;5.30;;
3133;SDS011;1577;49.912;10.924;2022-08-21T03:48:32;10.20;;;5.00;;
3133;SDS011;1577;49.912;10.924;2022-08-21T03:51:00;6.73;;;4.10;;
3133;SDS011;1577;49.912;10.924;2022-08-21T03:53:26;7.83;;;5.70;;
3133;SDS011;1577;49.912;10.924;2022-08-21T03:55:52;10.93;;;4.10;;
3133;SDS011;1577;49.912;10.924;2022-08-21T03:58:20;11.70;;;5.30;;
3133;SDS011;1577;49.912;10.924;2022-08-21T04:00:49;15.33;;;5.50;;
3133;SDS011;1577;49.912;10.924;2022-08-21T04:03:16;17.60;;;4.87;;
3133;SDS011;1577;49.912;10.924;2022-08-21T04:05:42;11.23;;;5.20;;
3133;SDS011;1577;49.912;10.924;2022-08-21T04:08:10;18.90;;;4.90;;
3133;SDS011;1577;49.912;10.924;2022-08-21T04:10:37;20.60;;;5.97;;
3133;SDS011;1577;49.912;10.924;2022-08-21T04:13:05;11.07;;;5.70;;
3133;SDS011;1577;49.912;10.924;2022-08-21T04:15:32;16.13;;;4.67;;
3133;SDS011;1577;49.912;10.924;2022-08-21T04:17:58;14.50;;;5.13;;
3133;SDS011;1577;49.912;10.924;2022-08-21T04:20:24;12.67;;;5.60;;
3133;SDS011;1577;49.912;10.924;2022-08-21T04:22:51;10.07;;;4.97;;
3133;SDS011;1577;49.912;10.924;2022-08-21T04:25:18;13.30;;;5.13;;
3133;SDS011;1577;49.912;10.924;2022-08-21T04:27:45;18.20;;;6.40;;
3133;SDS011;1577;49.912;10.924;2022-08-21T04:30:11;19.13;;;5.13;;
3133;SDS011;1577;49.912;10.924;2022-08-21T04:32:41;13.07;;;5.40;;
3133;SDS011;1577;49.912;10.924;2022-08-21T04:35:11;10.07;;;4.33;;
3133;SDS011;1577;49.912;10.924;2022-08-21T04:37:38;8.70;;;4.30;;
3133;SDS011;1577;49.912;10.924;2022-08-21T04:40:04;18.87;;;4.93;;
3133;SDS011;1577;49.912;10.924;2022-08-21T04:42:30;13.27;;;4.40;;
3133;SDS011;1577;49.912;10.924;2022-08-21T04:44:56;19.40;;;5.70;;
3133;SDS011;1577;49.912;10.924;2022-08-21T04:47:22;22.27;;;5.43;;
3133;SDS011;1577;49.912;10.924;2022-08-21T04:49:48;9.73;;;5.30;;
3133;SDS011;1577;49.912;10.924;2022-08-21T04:52:15;19.63;;;6.10;;
3133;SDS011;1577;49.912;10.924;2022-08-21T04:54:44;19.63;;;5.03;;
3133;SDS011;1577;49.912;10.924;2022-08-21T04:57:12;12.00;;;5.63;;
3133;SDS011;1577;49.912;10.924;2022-08-21T04:59:41;24.93;;;6.73;;
3133;SDS011;1577;49.912;10.924;2022-08-21T05:02:10;11.20;;;4.90;;
3133;SDS011;1577;49.912;10.924;2022-08-21T05:04:38;11.97;;;5.30;;
3133;SDS011;1577;49.912;10.924;2022-08-21T05:07:10;16.97;;;5.00;;
3133;SDS011;1577;49.912;10.924;2022-08-21T05:09:42;17.90;;;4.77;;
3133;SDS011;1577;49.912;10.924;2022-08-21T05:12:08;12.13;;;4.93;;
3133;SDS011;1577;49.912;10.924;2022-08-21T05:14:34;37.93;;;6.10;;
3133;SDS011;1577;49.912;10.924;2022-08-21T05:17:00;10.53;;;4.70;;
3133;SDS011;1577;49.912;10.924;2022-08-21T05:19:25;8.83;;;5.03;;
3133;SDS011;1577;49.912;10.924;2022-08-21T05:21:52;14.60;;;4.73;;
3133;SDS011;1577;49.912;10.924;2022-08-21T05:24:18;10.03;;;5.30;;
3133;SDS011;1577;49.912;10.924;2022-08-21T05:26:44;16.37;;;4.93;;
3133;SDS011;1577;49.912;10.924;2022-08-21T05:29:11;11.83;;;5.03;;
3133;SDS011;1577;49.912;10.924;2022-08-21T05:31:36;9.73;;;4.77;;
3133;SDS011;1577;49.912;10.924;2022-08-21T05:34:03;6.93;;;4.40;;
3133;SDS011;1577;49.912;10.924;2022-08-21T05:36:29;7.80;;;4.83;;
3133;SDS011;1577;49.912;10.924;2022-08-21T05:38:55;11.17;;;5.53;;
3133;SDS011;1577;49.912;10.924;2022-08-21T05:41:20;8.37;;;4.70;;
3133;SDS011;1577;49.912;10.924;2022-08-21T05:43:46;23.27;;;5.40;;
3133;SDS011;1577;49.912;10.924;2022-08-21T05:46:12;8.67;;;5.07;;
3133;SDS011;1577;49.912;10.924;2022-08-21T05:48:38;18.70;;;9.03;;
3133;SDS011;1577;49.912;10.924;2022-08-21T05:51:07;10.33;;;5.60;;
3133;SDS011;1577;49.912;10.924;2022-08-21T05:53:39;9.60;;;6.17;;
3133;SDS011;1577;49.912;10.924;2022-08-21T05:56:07;16.37;;;6.27;;
3133;SDS011;1577;49.912;10.924;2022-08-21T05:58:33;15.40;;;5.57;;
3133;SDS011;1577;49.912;10.924;2022-08-21T06:01:00;16.40;;;4.43;;
3133;SDS011;1577;49.912;10.924;2022-08-21T06:03:28;10.30;;;5.43;;
3133;SDS011;1577;49.912;10.924;2022-08-21T06:05:57;9.73;;;4.37;;
3133;SDS011;1577;49.912;10.924;2022-08-21T06:08:23;9.40;;;5.30;;
3133;SDS011;1577;49.912;10.924;2022-08-21T06:10:50;15.47;;;5.90;;
3133;SDS011;1577;49.912;10.924;2022-08-21T06:13:18;13.10;;;5.10;;
3133;SDS011;1577;49.912;10.924;2022-08-21T06:15:45;13.33;;;4.17;;
3133;SDS011;1577;49.912;10.924;2022-08-21T06:18:11;13.30;;;4.97;;
3133;SDS011;1577;49.912;10.924;2022-08-21T06:20:37;10.77;;;4.80;;
3133;SDS011;1577;49.912;10.924;2022-08-21T06:23:06;7.20;;;4.87;;
3133;SDS011;1577;49.912;10.924;2022-08-21T06:25:32;13.50;;;5.00;;
3133;SDS011;1577;49.912;10.924;2022-08-21T06:28:02;7.80;;;5.20;;
3133;SDS011;1577;49.912;10.924;2022-08-21T06:30:30;9.63;;;4.13;;
3133;SDS011;1577;49.912;10.924;2022-08-21T06:32:56;5.70;;;4.37;;
3133;SDS011;1577;49.912;10.924;2022-08-21T06:35:22;12.70;;;4.70;;
3133;SDS011;1577;49.912;10.924;2022-08-21T06:37:49;11.23;;;4.80;;
3133;SDS011;1577;49.912;10.924;2022-08-21T06:40:15;7.00;;;4.77;;
3133;SDS011;1577;49.912;10.924;2022-08-21T06:42:41;9.03;;;5.10;;
3133;SDS011;1577;49.912;10.924;2022-08-21T06:45:07;6.43;;;4.37;;
3133;SDS011;1577;49.912;10.924;2022-08-21T06:47:36;6.97;;;5.00;;
3133;SDS011;1577;49.912;10.924;2022-08-21T06:50:02;7.43;;;4.30;;
3133;SDS011;1577;49.912;10.924;2022-08-21T06:52:28;7.07;;;4.27;;
3133;SDS011;1577;49.912;10.924;2022-08-21T06:54:54;5.47;;;4.00;;
3133;SDS011;1577;49.912;10.924;2022-08-21T06:57:19;6.97;;;4.40;;
3133;SDS011;1577;49.912;10.924;2022-08-21T06:59:47;6.53;;;4.60;;
3133;SDS011;1577;49.912;10.924;2022-08-21T07:02:12;6.67;;;4.80;;
3133;SDS011;1577;49.912;10.924;2022-08-21T07:04:38;6.20;;;4.10;;
3133;SDS011;1577;49.912;10.924;2022-08-21T07:07:03;6.77;;;4.57;;
3133;SDS011;1577;49.912;10.924;2022-08-21T07:09:29;7.00;;;4.40;;
3133;SDS011;1577;49.912;10.924;2022-08-21T07:11:55;8.13;;;4.83;;
3133;SDS011;1577;49.912;10.924;2022-08-21T07:14:21;5.90;;;4.30;;
3133;SDS011;1577;49.912;10.924;2022-08-21T07:16:47;9.00;;;5.93;;
3133;SDS011;1577;49.912;10.924;2022-08-21T07:19:14;8.97;;;4.80;;
3133;SDS011;1577;49.912;10.924;2022-08-21T07:21:40;6.63;;;4.87;;
3133;SDS011;1577;49.912;10.924;2022-08-21T07:24:05;6.17;;;4.90;;
3133;SDS011;1577;49.912;10.924;2022-08-21T07:26:31;5.77;;;4.37;;
3133;SDS011;1577;49.912;10.924;2022-08-21T07:28:57;4.30;;;3.77;;
3133;SDS011;1577;49.912;10.924;2022-08-21T07:31:23;4.40;;;3.80;;
3133;SDS011;1577;49.912;10.924;2022-08-21T07:33:49;4.73;;;4.00;;
3133;SDS011;1577;49.912;10.924;2022-08-21T07:36:15;5.43;;;4.27;;
3133;SDS011;1577;49.912;10.924;2022-08-21T07:38:42;4.80;;;4.03;;
3133;SDS011;1577;49.912;10.924;2022-08-21T07:41:29;5.37;;;4.40;;
3133;SDS011;1577;49.912;10.924;2022-08-21T07:43:55;7.43;;;5.00;;
3133;SDS011;1577;49.912;10.924;2022-08-21T07:46:22;5.63;;;4.30;;
3133;SDS011;1577;49.912;10.924;2022-08-21T07:48:48;6.70;;;4.80;;
3133;SDS011;1577;49.912;10.924;2022-08-21T07:51:15;4.80;;;4.00;;
3133;SDS011;1577;49.912;10.924;2022-08-21T07:53:41;5.57;;;4.60;;
3133;SDS011;1577;49.912;10.924;2022-08-21T07:56:07;5.43;;;4.40;;
3133;SDS011;1577;49.912;10.924;2022-08-21T07:58:33;5.73;;;4.60;;
3133;SDS011;1577;49.912;10.924;2022-08-21T08:00:59;6.20;;;4.83;;
3133;SDS011;1577;49.912;10.924;2022-08-21T08:03:25;4.90;;;4.40;;
3133;SDS011;1577;49.912;10.924;2022-08-21T08:05:51;6.30;;;5.33;;
3133;SDS011;1577;49.912;10.924;2022-08-21T08:08:16;5.23;;;4.63;;
3133;SDS011;1577;49.912;10.924;2022-08-21T08:10:42;6.20;;;5.00;;
3133;SDS011;1577;49.912;10.924;2022-08-21T08:13:09;5.73;;;5.13;;
3133;SDS011;1577;49.912;10.924;2022-08-21T08:15:35;5.00;;;4.40;;
3133;SDS011;1577;49.912;10.924;2022-08-21T08:18:01;6.13;;;5.43;;
3133;SDS011;1577;49.912;10.924;2022-08-21T08:20:28;5.90;;;5.30;;
3133;SDS011;1577;49.912;10.924;2022-08-21T08:22:54;4.70;;;4.30;;
3133;SDS011;1577;49.912;10.924;2022-08-21T08:25:21;5.70;;;5.20;;
3133;SDS011;1577;49.912;10.924;2022-08-21T08:27:47;6.57;;;5.10;;
3133;SDS011;1577;49.912;10.924;2022-08-21T08:30:14;5.90;;;5.30;;
3133;SDS011;1577;49.912;10.924;2022-08-21T08:32:41;5.70;;;5.10;;
3133;SDS011;1577;49.912;10.924;2022-08-21T08:35:07;5.20;;;4.70;;
3133;SDS011;1577;49.912;10.924;2022-08-21T08:37:34;5.13;;;4.63;;
3133;SDS011;1577;49.912;10.924;2022-08-21T08:40:02;6.57;;;5.07;;
3133;SDS011;1577;49.912;10.924;2022-08-21T08:42:30;5.70;;;4.37;;
3133;SDS011;1577;49.912;10.924;2022-08-21T08:44:59;5.57;;;4.27;;
3133;SDS011;1577;49.912;10.924;2022-08-21T08:47:31;4.90;;;4.07;;
3133;SDS011;1577;49.912;10.924;2022-08-21T08:50:07;5.70;;;4.27;;
3133;SDS011;1577;49.912;10.924;2022-08-21T08:52:43;5.40;;;4.50;;
3133;SDS011;1577;49.912;10.924;2022-08-21T08:55:18;5.10;;;4.60;;
3133;SDS011;1577;49.912;10.924;2022-08-21T08:57:48;5.07;;;4.43;;
3133;SDS011;1577;49.912;10.924;2022-08-21T09:00:16;5.33;;;4.83;;
3133;SDS011;1577;49.912;10.924;2022-08-21T09:02:44;5.50;;;5.00;;
3133;SDS011;1577;49.912;10.924;2022-08-21T09:05:22;5.37;;;4.87;;
3133;SDS011;1577;49.912;10.924;2022-08-21T09:10:51;5.73;;;4.97;;
3133;SDS011;1577;49.912;10.924;2022-08-21T09:28:07;6.60;;;5.90;;
3133;SDS011;1577;49.912;10.924;2022-08-21T09:30:37;6.90;;;5.93;;
3133;SDS011;1577;49.912;10.924;2022-08-21T09:33:06;6.77;;;6.03;;
3133;SDS011;1577;49.912;10.924;2022-08-21T09:35:31;7.03;;;6.33;;
3133;SDS011;1577;49.912;10.924;2022-08-21T09:38:05;6.27;;;5.67;;
3133;SDS011;1577;49.912;10.924;2022-08-21T09:40:38;11.30;;;8.50;;
3133;SDS011;1577;49.912;10.924;2022-08-21T09:45:34;7.80;;;6.60;;
3133;SDS011;1577;49.912;10.924;2022-08-21T09:48:11;7.20;;;6.50;;
3133;SDS011;1577;49.912;10.924;2022-08-21T09:50:37;7.13;;;6.43;;
3133;SDS011;1577;49.912;10.924;2022-08-21T09:53:03;7.90;;;5.80;;
3133;SDS011;1577;49.912;10.924;2022-08-21T09:58:16;6.93;;;6.23;;
3133;SDS011;1577;49.912;10.924;2022-08-21T10:00:43;7.93;;;6.60;;
3133;SDS011;1577;49.912;10.924;2022-08-21T10:05:40;7.23;;;6.53;;
3133;SDS011;1577;49.912;10.924;2022-08-21T10:08:23;7.40;;;6.37;;
3133;SDS011;1577;49.912;10.924;2022-08-21T10:10:52;8.00;;;6.90;;
3133;SDS011;1577;49.912;10.924;2022-08-21T10:18:41;7.60;;;6.80;;
3133;SDS011;1577;49.912;10.924;2022-08-21T10:21:20;7.70;;;6.90;;
3133;SDS011;1577;49.912;10.924;2022-08-21T10:23:51;8.43;;;7.43;;
3133;SDS011;1577;49.912;10.924;2022-08-21T10:26:53;8.33;;;7.40;;
3133;SDS011;1577;49.912;10.924;2022-08-21T10:30:14;7.90;;;7.10;;
3133;SDS011;1577;49.912;10.924;2022-08-21T10:35:08;7.70;;;6.70;;
3133;SDS011;1577;49.912;10.924;2022-08-21T10:37:47;7.37;;;6.67;;
3133;SDS011;1577;49.912;10.924;2022-08-21T10:40:41;6.87;;;6.00;;
3133;SDS011;1577;49.912;10.924;2022-08-21T10:51:02;5.90;;;5.40;;
3133;SDS011;1577;49.912;10.924;2022-08-21T10:54:18;5.73;;;5.23;;
3133;SDS011;1577;49.912;10.924;2022-08-21T10:56:29;6.33;;;5.73;;
3133;SDS011;1577;49.912;10.924;2022-08-21T11:02:02;5.50;;;5.00;;
3133;SDS011;1577;49.912;10.924;2022-08-21T11:07:26;6.80;;;4.73;;
3133;SDS011;1577;49.912;10.924;2022-08-21T11:09:57;4.07;;;3.70;;
3133;SDS011;1577;49.912;10.924;2022-08-21T11:12:46;4.10;;;3.70;;
3133;SDS011;1577;49.912;10.924;2022-08-21T11:15:33;3.80;;;3.50;;
3133;SDS011;1577;49.912;10.924;2022-08-21T11:21:06;4.30;;;3.90;;
3133;SDS011;1577;49.912;10.924;2022-08-21T11:23:53;6.20;;;4.47;;
3133;SDS011;1577;49.912;10.924;2022-08-21T11:26:54;4.40;;;4.00;;
3133;SDS011;1577;49.912;10.924;2022-08-21T11:29:18;3.73;;;3.40;;
3133;SDS011;1577;49.912;10.924;2022-08-21T11:46:24;4.77;;;4.07;;
3133;SDS011;1577;49.912;10.924;2022-08-21T11:51:49;3.83;;;3.50;;
3133;SDS011;1577;49.912;10.924;2022-08-21T11:54:26;4.40;;;3.00;;
3133;SDS011;1577;49.912;10.924;2022-08-21T11:57:00;3.67;;;2.60;;
3133;SDS011;1577;49.912;10.924;2022-08-21T11:59:53;3.00;;;2.63;;
3133;SDS011;1577;49.912;10.924;2022-08-21T12:02:22;3.47;;;2.53;;
3133;SDS011;1577;49.912;10.924;2022-08-21T12:04:59;4.03;;;3.63;;
3133;SDS011;1577;49.912;10.924;2022-08-21T12:07:39;2.90;;;2.60;;
3133;SDS011;1577;49.912;10.924;2022-08-21T12:10:11;3.50;;;3.07;;
3133;SDS011;1577;49.912;10.924;2022-08-21T12:12:40;2.93;;;2.50;;
3133;SDS011;1577;49.912;10.924;2022-08-21T12:17:59;3.20;;;2.60;;
3133;SDS011;1577;49.912;10.924;2022-08-21T12:20:56;2.73;;;2.40;;
3133;SDS011;1577;49.912;10.924;2022-08-21T12:23:28;3.10;;;2.43;;
3133;SDS011;1577;49.912;10.924;2022-08-21T12:28:45;3.50;;;2.63;;
3133;SDS011;1577;49.912;10.924;2022-08-21T12:31:18;2.57;;;2.37;;
3133;SDS011;1577;49.912;10.924;2022-08-21T12:33:49;3.80;;;2.80;;
3133;SDS011;1577;49.912;10.924;2022-08-21T12:36:23;2.50;;;2.30;;
3133;SDS011;1577;49.912;10.924;2022-08-21T12:38:54;3.20;;;2.50;;
3133;SDS011;1577;49.912;10.924;2022-08-21T12:41:34;2.30;;;2.10;;
3133;SDS011;1577;49.912;10.924;2022-08-21T12:44:10;2.40;;;2.20;;
3133;SDS011;1577;49.912;10.924;2022-08-21T12:46:43;3.67;;;3.10;;
3133;SDS011;1577;49.912;10.924;2022-08-21T12:49:15;2.63;;;2.23;;
3133;SDS011;1577;49.912;10.924;2022-08-21T12:52:00;4.50;;;2.53;;
3133;SDS011;1577;49.912;10.924;2022-08-21T12:54:31;2.53;;;2.33;;
3133;SDS011;1577;49.912;10.924;2022-08-21T12:57:04;3.40;;;2.57;;
3133;SDS011;1577;49.912;10.924;2022-08-21T12:59:31;3.27;;;2.53;;
3133;SDS011;1577;49.912;10.924;2022-08-21T13:02:01;2.70;;;2.50;;
3133;SDS011;1577;49.912;10.924;2022-08-21T13:04:36;2.63;;;2.43;;
3133;SDS011;1577;49.912;10.924;2022-08-21T13:07:09;3.37;;;2.60;;
3133;SDS011;1577;49.912;10.924;2022-08-21T13:09:52;2.90;;;2.47;;
3133;SDS011;1577;49.912;10.924;2022-08-21T13:12:21;3.10;;;2.70;;
3133;SDS011;1577;49.912;10.924;2022-08-21T13:14:48;2.60;;;2.40;;
3133;SDS011;1577;49.912;10.924;2022-08-21T13:17:17;2.40;;;2.20;;
3133;SDS011;1577;49.912;10.924;2022-08-21T13:19:55;5.10;;;2.53;;
3133;SDS011;1577;49.912;10.924;2022-08-21T13:22:23;2.83;;;2.57;;
3133;SDS011;1577;49.912;10.924;2022-08-21T13:24:49;3.77;;;3.00;;
3133;SDS011;1577;49.912;10.924;2022-08-21T13:27:20;2.67;;;2.47;;
3133;SDS011;1577;49.912;10.924;2022-08-21T13:29:49;3.40;;;2.50;;
3133;SDS011;1577;49.912;10.924;2022-08-21T13:32:40;3.50;;;2.00;;
3133;SDS011;1577;49.912;10.924;2022-08-21T13:35:11;2.40;;;2.20;;
3133;SDS011;1577;49.912;10.924;2022-08-21T13:38:05;2.73;;;2.27;;
3133;SDS011;1577;49.912;10.924;2022-08-21T13:40:39;2.60;;;2.30;;
3133;SDS011;1577;49.912;10.924;2022-08-21T13:43:28;2.60;;;2.40;;
3133;SDS011;1577;49.912;10.924;2022-08-21T13:45:57;1.60;;;1.50;;
3133;SDS011;1577;49.912;10.924;2022-08-21T13:48:25;4.70;;;1.83;;
3133;SDS011;1577;49.912;10.924;2022-08-21T13:50:54;2.57;;;2.33;;
3133;SDS011;1577;49.912;10.924;2022-08-21T13:53:36;3.50;;;2.80;;
3133;SDS011;1577;49.912;10.924;2022-08-21T13:59:08;2.43;;;2.10;;
3133;SDS011;1577;49.912;10.924;2022-08-21T14:01:37;3.43;;;2.20;;
3133;SDS011;1577;49.912;10.924;2022-08-21T14:04:21;3.00;;;1.97;;
3133;SDS011;1577;49.912;10.924;2022-08-21T14:06:49;2.53;;;2.30;;
3133;SDS011;1577;49.912;10.924;2022-08-21T14:12:03;3.33;;;1.57;;
3133;SDS011;1577;49.912;10.924;2022-08-21T14:14:42;3.77;;;2.00;;
3133;SDS011;1577;49.912;10.924;2022-08-21T14:17:13;2.97;;;1.50;;
3133;SDS011;1577;49.912;10.924;2022-08-21T14:19:52;1.83;;;1.70;;
3133;SDS011;1577;49.912;10.924;2022-08-21T14:23:01;3.07;;;1.83;;
3133;SDS011;1577;49.912;10.924;2022-08-21T14:27:44;2.43;;;2.20;;
3133;SDS011;1577;49.912;10.924;2022-08-21T14:30:37;2.33;;;2.13;;
3133;SDS011;1577;49.912;10.924;2022-08-21T14:33:08;2.70;;;1.83;;
3133;SDS011;1577;49.912;10.924;2022-08-21T14:35:39;2.00;;;1.50;;
3133;SDS011;1577;49.912;10.924;2022-08-21T14:38:12;1.60;;;1.50;;
3133;SDS011;1577;49.912;10.924;2022-08-21T14:40:40;2.37;;;1.57;;
3133;SDS011;1577;49.912;10.924;2022-08-21T14:43:06;2.00;;;1.60;;
3133;SDS011;1577;49.912;10.924;2022-08-21T14:45:33;2.30;;;2.07;;
3133;SDS011;1577;49.912;10.924;2022-08-21T14:48:01;3.10;;;1.73;;
3133;SDS011;1577;49.912;10.924;2022-08-21T14:50:27;2.83;;;2.00;;
3133;SDS011;1577;49.912;10.924;2022-08-21T14:52:53;2.03;;;1.70;;
3133;SDS011;1577;49.912;10.924;2022-08-21T14:55:19;3.20;;;1.80;;
3133;SDS011;1577;49.912;10.924;2022-08-21T14:57:47;2.37;;;1.80;;
3133;SDS011;1577;49.912;10.924;2022-08-21T15:00:16;2.97;;;1.73;;
3133;SDS011;1577;49.912;10.924;2022-08-21T15:02:44;1.90;;;1.70;;
3133;SDS011;1577;49.912;10.924;2022-08-21T15:05:10;2.30;;;2.10;;
3133;SDS011;1577;49.912;10.924;2022-08-21T15:07:36;2.67;;;2.40;;
3133;SDS011;1577;49.912;10.924;2022-08-21T15:10:03;2.10;;;1.90;;
3133;SDS011;1577;49.912;10.924;2022-08-21T15:12:29;1.87;;;1.73;;
3133;SDS011;1577;49.912;10.924;2022-08-21T15:14:54;1.73;;;1.63;;
3133;SDS011;1577;49.912;10.924;2022-08-21T15:17:20;1.77;;;1.67;;
3133;SDS011;1577;49.912;10.924;2022-08-21T15:19:46;2.27;;;1.80;;
3133;SDS011;1577;49.912;10.924;2022-08-21T15:22:12;2.47;;;2.00;;
3133;SDS011;1577;49.912;10.924;2022-08-21T15:24:37;3.57;;;2.20;;
3133;SDS011;1577;49.912;10.924;2022-08-21T15:27:03;2.03;;;1.73;;
3133;SDS011;1577;49.912;10.924;2022-08-21T15:29:30;2.03;;;1.50;;
3133;SDS011;1577;49.912;10.924;2022-08-21T15:31:59;3.67;;;2.27;;
3133;SDS011;1577;49.912;10.924;2022-08-21T15:34:27;2.33;;;2.00;;
3133;SDS011;1577;49.912;10.924;2022-08-21T15:36:55;2.37;;;2.17;;
3133;SDS011;1577;49.912;10.924;2022-08-21T15:39:22;3.93;;;2.43;;
3133;SDS011;1577;49.912;10.924;2022-08-21T15:41:48;2.03;;;1.60;;
3133;SDS011;1577;49.912;10.924;2022-08-21T15:44:14;2.03;;;1.80;;
3133;SDS011;1577;49.912;10.924;2022-08-21T15:46:41;2.90;;;2.00;;
3133;SDS011;1577;49.912;10.924;2022-08-21T15:49:09;2.57;;;1.90;;
3133;SDS011;1577;49.912;10.924;2022-08-21T15:51:35;2.20;;;1.80;;
3133;SDS011;1577;49.912;10.924;2022-08-21T15:54:01;1.70;;;1.50;;
3133;SDS011;1577;49.912;10.924;2022-08-21T15:56:32;1.80;;;1.53;;
3133;SDS011;1577;49.912;10.924;2022-08-21T15:59:01;2.57;;;1.97;;
3133;SDS011;1577;49.912;10.924;2022-08-21T16:01:37;2.10;;;1.80;;
3133;SDS011;1577;49.912;10.924;2022-08-21T16:04:03;2.10;;;1.90;;
3133;SDS011;1577;49.912;10.924;2022-08-21T16:06:30;2.77;;;2.03;;
3133;SDS011;1577;49.912;10.924;2022-08-21T16:08:56;2.93;;;2.17;;
3133;SDS011;1577;49.912;10.924;2022-08-21T16:11:22;2.83;;;2.30;;
3133;SDS011;1577;49.912;10.924;2022-08-21T16:13:48;3.30;;;1.73;;
3133;SDS011;1577;49.912;10.924;2022-08-21T16:16:17;2.90;;;2.03;;
3133;SDS011;1577;49.912;10.924;2022-08-21T16:18:45;2.47;;;2.27;;
3133;SDS011;1577;49.912;10.924;2022-08-21T16:21:11;2.73;;;1.97;;
3133;SDS011;1577;49.912;10.924;2022-08-21T16:23:37;3.97;;;1.87;;
3133;SDS011;1577;49.912;10.924;2022-08-21T16:26:05;1.93;;;1.73;;
3133;SDS011;1577;49.912;10.924;2022-08-21T16:28:33;2.83;;;2.07;;
3133;SDS011;1577;49.912;10.924;2022-08-21T16:31:01;3.00;;;2.07;;
3133;SDS011;1577;49.912;10.924;2022-08-21T16:36:02;2.60;;;2.40;;